Home > Products > Valid Products > MTR

000
SAUS44 KLIX 301752
MTRBVE
METAR KBVE 301751Z AUTO 05005KT 10SM CLR 33/26 A3000 RMK AO2 SLP159
T03280256 10328 20283 58006





000
SAUS44 KLIX 301652
MTRBVE
METAR KBVE 301651Z AUTO 01006KT 10SM CLR 32/25 A3001 RMK AO2 SLP162
T03170250





000
SAUS44 KLIX 301554 COR
MTRBVE
METAR KBVE 301551Z AUTO VRB06KT 10SM CLR 31/25 A3001 RMK AO2 SLP163
T03060250





000
SAUS44 KLIX 301553 COR
MTRBVE
METAR KBVE 301551Z AUTO VRB06KT 10SM CLR 31/25 A3001 RMK AO2 SLP163
T03060250





000
SAUS44 KLIX 301544
MTRBVE
SPECI KBVE 301542Z AUTO VRB06KT 10SM FEW002 31/25 A3002 RMK AO2
T03110250





000
SAUS44 KLIX 301544
MTRBVE
SPECI KBVE 301542Z AUTO VRB06KT 10SM FEW002 31/25 A3002 RMK AO2
T03110250





000
SAUS44 KLIX 301452
MTRBVE
METAR KBVE 301451Z AUTO 35006KT 10SM CLR 30/24 A3002 RMK AO2 SLP164
T03000244 51006





000
SAUS44 KLIX 301356 COR
MTRBVE
METAR KBVE 301351Z AUTO 34008KT 10SM CLR 30/25 A3002 RMK AO2 SLP164
T03000250





000
SAUS44 KLIX 301353 COR
MTRBVE
METAR KBVE 301351Z AUTO 34008KT 10SM CLR 30/25 A3002 RMK AO2 SLP164
T03000250





000
SAUS44 KLIX 301252
MTRBVE
METAR KBVE 301251Z AUTO 33007KT 10SM CLR 29/26 A3001 RMK AO2 SLP161
T02890256





000
SAUS44 KLIX 301252
MTRBVE
METAR KBVE 301251Z AUTO 33007KT 10SM CLR 29/26 A3001 RMK AO2 SLP161
T02890256





000
SAUS44 KLIX 301152
MTRBVE
METAR KBVE 301151Z AUTO 33005KT 10SM BKN100 28/26 A3000 RMK AO2
SLP159 T02830256 10289 20272 53007





000
SAUS44 KLIX 301052
MTRBVE
METAR KBVE 301051Z AUTO 33005KT 10SM OVC100 28/26 A2998 RMK AO2
SLP153 T02780256





000
SAUS44 KLIX 300952
MTRBVE
METAR KBVE 300951Z AUTO 00000KT 10SM FEW090 27/25 A2998 RMK AO2
SLP151 T02720250





000
SAUS44 KLIX 300952
MTRBVE
METAR KBVE 300951Z AUTO 00000KT 10SM FEW090 27/25 A2998 RMK AO2
SLP151 T02720250





000
SAUS44 KLIX 300853
MTRBVE
METAR KBVE 300851Z AUTO 30003KT 10SM CLR 27/25 A2998 RMK AO2 SLP152
T02720250 58004





000
SAUS44 KLIX 300753
MTRBVE
METAR KBVE 300751Z AUTO 00000KT 10SM CLR 27/25 A2999 RMK AO2 SLP153
T02720250





000
SAUS44 KLIX 300753
MTRBVE
METAR KBVE 300751Z AUTO 00000KT 10SM CLR 27/25 A2999 RMK AO2 SLP153
T02720250





000
SAUS44 KLIX 300654 COR
MTRBVE
METAR KBVE 300651Z AUTO 34007KT 10SM SCT014 28/24 A3000 RMK AO2
SLP159 T02830239





000
SAUS44 KLIX 300654 COR
MTRBVE
METAR KBVE 300651Z AUTO 34007KT 10SM SCT014 28/24 A3000 RMK AO2
SLP159 T02830239





000
SAUS44 KLIX 300653 COR
MTRBVE
METAR KBVE 300651Z AUTO 34007KT 10SM SCT014 28/24 A3000 RMK AO2
SLP159 T02830239





000
SAUS44 KLIX 300653 COR
MTRBVE
METAR KBVE 300651Z AUTO 34007KT 10SM SCT014 28/24 A3000 RMK AO2
SLP159 T02830239





000
SAUS44 KLIX 300652
MTRBVE
METAR KBVE 300651Z AUTO 34007KT 10SM SCT014 28/24 A3000 RMK AO2
SLP159 T02830239





000
SAUS44 KLIX 300652
MTRBVE
METAR KBVE 300651Z AUTO 34007KT 10SM SCT014 28/24 A3000 RMK AO2
SLP159 T02830239





000
SAUS44 KLIX 300633
MTRBVE
SPECI KBVE 300632Z AUTO 33008KT 10SM BKN015 28/24 A3000 RMK AO2
T02830239





000
SAUS44 KLIX 300633
MTRBVE
SPECI KBVE 300632Z AUTO 33008KT 10SM BKN015 28/24 A3000 RMK AO2
T02830239





000
SAUS44 KLIX 300552
MTRBVE
METAR KBVE 300551Z AUTO 34006KT 10SM CLR 29/25 A2999 RMK AO2 SLP156
T02890250 10317 20283 403500272 58005





000
SAUS44 KLIX 300552
MTRBVE
METAR KBVE 300551Z AUTO 34006KT 10SM CLR 29/25 A2999 RMK AO2 SLP156
T02890250 10317 20283 403500272 58005





000
SAUS44 KLIX 300456 COR
MTRBVE
METAR KBVE 300451Z AUTO 00000KT 10SM CLR 28/25 A2998 RMK AO2 SLP153
T02830250





000
SAUS44 KLIX 300456 COR
MTRBVE
METAR KBVE 300451Z AUTO 00000KT 10SM CLR 28/25 A2998 RMK AO2 SLP153
T02830250





000
SAUS44 KLIX 300453 COR
MTRBVE
METAR KBVE 300451Z AUTO 00000KT 10SM CLR 28/25 A2998 RMK AO2 SLP153
T02830250





000
SAUS44 KLIX 300353
MTRBVE
METAR KBVE 300351Z AUTO 33008KT 10SM FEW036 28/26 A3002 RMK AO2
SLP165 T02830256





000
SAUS44 KLIX 300353
MTRBVE
METAR KBVE 300351Z AUTO 33008KT 10SM FEW036 28/26 A3002 RMK AO2
SLP165 T02830256





000
SAUS44 KLIX 300256 COR
MTRBVE
METAR KBVE 300251Z AUTO 27004KT 10SM CLR 31/24 A3001 RMK AO2 SLP161
T03110244 53009





000
SAUS44 KLIX 300253 COR
MTRBVE
METAR KBVE 300251Z AUTO 27004KT 10SM CLR 31/24 A3001 RMK AO2 SLP161
T03110244 53009





000
SAUS44 KLIX 300253 COR
MTRBVE
METAR KBVE 300251Z AUTO 27004KT 10SM CLR 31/24 A3001 RMK AO2 SLP161
T03110244 53009





000
SAUS44 KLIX 300152
MTRBVE
METAR KBVE 300151Z AUTO 22007KT 10SM CLR 31/23 A2999 RMK AO2 SLP155
T03110233





000
SAUS44 KLIX 300152
MTRBVE
METAR KBVE 300151Z AUTO 22007KT 10SM CLR 31/23 A2999 RMK AO2 SLP155
T03110233





000
SAUS44 KLIX 300052
MTRBVE
METAR KBVE 300051Z AUTO 20007KT 10SM CLR 31/24 A2998 RMK AO2 SLP150
T03110239





000
SAUS44 KLIX 292352
MTRBVE
METAR KBVE 292351Z AUTO 19007KT 10SM CLR 32/24 A2998 RMK AO2 SLP152
T03170244 10350 20317 53002





000
SAUS44 KLIX 292252
MTRBVE
METAR KBVE 292251Z AUTO 20008KT 10SM CLR 33/25 A2997 RMK AO2 SLP149
T03330250





000
SAUS44 KLIX 292252
MTRBVE
METAR KBVE 292251Z AUTO 20008KT 10SM CLR 33/25 A2997 RMK AO2 SLP149
T03330250





000
SAUS44 KLIX 292152
MTRBVE
METAR KBVE 292151Z AUTO 12004KT 10SM CLR 33/23 A2997 RMK AO2 SLP149
T03330228





000
SAUS44 KLIX 292052
MTRBVE
METAR KBVE 292051Z AUTO 00000KT 10SM CLR 34/23 A2998 RMK AO2 SLP150
T03440233 58016





000
SAUS44 KLIX 291952
MTRBVE
METAR KBVE 291951Z AUTO VRB03KT 10SM CLR 34/23 A2999 RMK AO2 SLP156
T03390228





000
SAUS44 KLIX 291852
MTRBVE
METAR KBVE 291851Z AUTO 32005KT 10SM CLR 33/24 A3001 RMK AO2 SLP162
T03280239





000
SAUS44 KLIX 291753
MTRBVE
METAR KBVE 291751Z AUTO 34007KT 10SM CLR 32/25 A3002 RMK AO2 SLP166
T03220250 10322 20283 56012





000
SAUS44 KLIX 291652
MTRBVE
METAR KBVE 291651Z AUTO VRB05KT 10SM CLR 32/23 A3004 RMK AO2 SLP170
T03170233





000
SAUS44 KLIX 291556 COR
MTRBVE
METAR KBVE 291551Z AUTO 01006KT 10SM CLR 30/24 A3004 RMK AO2 SLP173
T03000239





000
SAUS44 KLIX 291556 COR
MTRBVE
METAR KBVE 291551Z AUTO 01006KT 10SM CLR 30/24 A3004 RMK AO2 SLP173
T03000239





000
SAUS44 KLIX 291553 COR
MTRBVE
METAR KBVE 291551Z AUTO 01006KT 10SM CLR 30/24 A3004 RMK AO2 SLP173
T03000239





000
SAUS44 KLIX 291452
MTRBVE
METAR KBVE 291451Z AUTO 35007KT 10SM SCT060 31/25 A3006 RMK AO2
SLP178 T03060250 51018





000
SAUS44 KLIX 291452
MTRBVE
METAR KBVE 291451Z AUTO 35007KT 10SM SCT060 31/25 A3006 RMK AO2
SLP178 T03060250 51018





000
SAUS44 KLIX 291352
MTRBVE
METAR KBVE 291351Z AUTO 32006KT 10SM FEW070 30/24 A3004 RMK AO2
SLP173 T03000244





000
SAUS44 KLIX 291252
MTRBVE
METAR KBVE 291251Z AUTO 32006KT 10SM FEW070 29/24 A3003 RMK AO2
SLP169 T02890244





000
SAUS44 KLIX 291252
MTRBVE
METAR KBVE 291251Z AUTO 32006KT 10SM FEW070 29/24 A3003 RMK AO2
SLP169 T02890244





000
SAUS44 KLIX 291152
MTRBVE
METAR KBVE 291151Z AUTO 31005KT 10SM CLR 28/24 A3001 RMK AO2 SLP160
T02830244 10300 20272 53009





000
SAUS44 KLIX 291052
MTRBVE
METAR KBVE 291051Z AUTO 32003KT 10SM CLR 28/24 A2999 RMK AO2 SLP156
T02830244





000
SAUS44 KLIX 290954 COR
MTRBVE
METAR KBVE 290951Z AUTO 31003KT 10SM CLR 27/24 A2997 RMK AO2 SLP149
T02720239





000
SAUS44 KLIX 290953 COR
MTRBVE
METAR KBVE 290951Z AUTO 31003KT 10SM CLR 27/24 A2997 RMK AO2 SLP149
T02720239





000
SAUS44 KLIX 290852
MTRBVE
METAR KBVE 290851Z AUTO 28004KT 10SM CLR 28/23 A2998 RMK AO2 SLP151
T02830233 55013





000
SAUS44 KLIX 290752
MTRBVE
METAR KBVE 290751Z AUTO 24005KT 10SM CLR 29/23 A2998 RMK AO2 SLP150
T02940233





000
SAUS44 KLIX 290652
MTRBVE
METAR KBVE 290651Z AUTO 24006KT 10SM CLR 29/24 A3000 RMK AO2 SLP157
T02940239





000
SAUS44 KLIX 290652
MTRBVE
METAR KBVE 290651Z AUTO 24006KT 10SM CLR 29/24 A3000 RMK AO2 SLP157
T02940239





000
SAUS44 KLIX 290552
MTRBVE
METAR KBVE 290551Z AUTO 22004KT 10SM CLR 29/24 A3002 RMK AO2 SLP164
T02940239 10322 20294 403330267 51002





000
SAUS44 KLIX 290552
MTRBVE
METAR KBVE 290551Z AUTO 22004KT 10SM CLR 29/24 A3002 RMK AO2 SLP164
T02940239 10322 20294 403330267 51002





000
SAUS44 KLIX 290452
MTRBVE
METAR KBVE 290451Z AUTO 21005KT 10SM CLR 30/23 A3001 RMK AO2 SLP163
T03000233





000
SAUS44 KLIX 290452
MTRBVE
METAR KBVE 290451Z AUTO 21005KT 10SM CLR 30/23 A3001 RMK AO2 SLP163
T03000233





000
SAUS44 KLIX 290352
MTRBVE
METAR KBVE 290351Z AUTO 20004KT 10SM CLR 29/23 A3002 RMK AO2 SLP164
T02940228





000
SAUS44 KLIX 290352
MTRBVE
METAR KBVE 290351Z AUTO 20004KT 10SM CLR 29/23 A3002 RMK AO2 SLP164
T02940228





000
SAUS44 KLIX 290252
MTRBVE
METAR KBVE 290251Z AUTO 21004KT 10SM CLR 30/23 A3001 RMK AO2 SLP162
T03000233 53015





000
SAUS44 KLIX 290156 COR
MTRBVE
METAR KBVE 290151Z AUTO 00000KT 10SM CLR 30/23 A2999 RMK AO2 SLP153
T03000233





000
SAUS44 KLIX 290156 COR
MTRBVE
METAR KBVE 290151Z AUTO 00000KT 10SM CLR 30/23 A2999 RMK AO2 SLP153
T03000233





000
SAUS44 KLIX 290153 COR
MTRBVE
METAR KBVE 290151Z AUTO 00000KT 10SM CLR 30/23 A2999 RMK AO2 SLP153
T03000233





000
SAUS44 KLIX 290152
MTRBVE
METAR KBVE 290151Z AUTO 00000KT 10SM CLR 30/23 A2999 RMK AO2 SLP153
T03000233





000
SAUS44 KLIX 290052
MTRBVE
METAR KBVE 290051Z AUTO 23003KT 10SM CLR 31/23 A2997 RMK AO2 SLP149
T03060233





000
SAUS44 KLIX 282352
MTRBVE
METAR KBVE 282351Z AUTO VRB03KT 10SM CLR 32/23 A2997 RMK AO2 SLP146
T03220233 10333 20311 57010





000
SAUS44 KLIX 282252
MTRBVE
METAR KBVE 282251Z AUTO 15003KT 10SM BKN034 33/23 A2997 RMK AO2
SLP149 T03280233





000
SAUS44 KLIX 282152
MTRBVE
METAR KBVE 282151Z AUTO 00000KT 10SM SCT034 32/24 A2999 RMK AO2
SLP154 T03220239





000
SAUS44 KLIX 282052
MTRBVE
METAR KBVE 282051Z AUTO VRB03KT 10SM SCT033 SCT043 33/24 A2999 RMK
AO2 SLP156 T03280239 58009





000
SAUS44 KLIX 281958 COR
MTRBVE
METAR KBVE 281951Z AUTO 08003KT 10SM SCT032 BKN055 32/23 A3001 RMK
AO2 SLP161 T03220228





000
SAUS44 KLIX 281958 COR
MTRBVE
METAR KBVE 281951Z AUTO 08003KT 10SM SCT032 BKN055 32/23 A3001 RMK
AO2 SLP161 T03220228





000
SAUS44 KLIX 281957 COR
MTRBVE
METAR KBVE 281951Z AUTO 08003KT 10SM SCT032 BKN055 32/23 A3001 RMK
AO2 SLP161 T03220228





000
SAUS44 KLIX 281957 COR
MTRBVE
METAR KBVE 281951Z AUTO 08003KT 10SM SCT032 BKN055 32/23 A3001 RMK
AO2 SLP161 T03220228





000
SAUS44 KLIX 281953 COR
MTRBVE
METAR KBVE 281951Z AUTO 08003KT 10SM SCT032 BKN055 32/23 A3001 RMK
AO2 SLP161 T03220228





000
SAUS44 KLIX 281852
MTRBVE
METAR KBVE 281851Z AUTO 34003KT 10SM SCT035 SCT055 BKN070 32/24
A3002 RMK AO2 SLP166 T03170239





000
SAUS44 KLIX 281756 COR
MTRBVE
METAR KBVE 281751Z AUTO VRB04KT 10SM SCT031 SCT055 32/24 A3002 RMK
AO2 SLP165 T03170239 10328 20278 58006





000
SAUS44 KLIX 281756 COR
MTRBVE
METAR KBVE 281751Z AUTO VRB04KT 10SM SCT031 SCT055 32/24 A3002 RMK
AO2 SLP165 T03170239 10328 20278 58006





000
SAUS44 KLIX 281753 COR
MTRBVE
METAR KBVE 281751Z AUTO VRB04KT 10SM SCT031 SCT055 32/24 A3002 RMK
AO2 SLP165 T03170239 10328 20278 58006





000
SAUS44 KLIX 281753 COR
MTRBVE
METAR KBVE 281751Z AUTO VRB04KT 10SM SCT031 SCT055 32/24 A3002 RMK
AO2 SLP165 T03170239 10328 20278 58006





000
SAUS44 KLIX 281652
MTRBVE
METAR KBVE 281651Z AUTO 34005KT 10SM BKN049 32/23 A3003 RMK AO2
SLP168 T03170233





000
SAUS44 KLIX 281552
MTRBVE
METAR KBVE 281551Z AUTO 34005KT 10SM CLR 32/24 A3003 RMK AO2 SLP169
T03220239





000
SAUS44 KLIX 281453
MTRBVE
METAR KBVE 281451Z AUTO VRB04KT 10SM CLR 31/24 A3004 RMK AO2 SLP171
T03110239 51011





000
SAUS44 KLIX 281453
MTRBVE
METAR KBVE 281451Z AUTO VRB04KT 10SM CLR 31/24 A3004 RMK AO2 SLP171
T03110239 51011





000
SAUS44 KLIX 281356 COR
MTRBVE
METAR KBVE 281351Z AUTO 00000KT 10SM CLR 31/24 A3003 RMK AO2 SLP168
T03060244





000
SAUS44 KLIX 281356 COR
MTRBVE
METAR KBVE 281351Z AUTO 00000KT 10SM CLR 31/24 A3003 RMK AO2 SLP168
T03060244





000
SAUS44 KLIX 281355 COR
MTRBVE
METAR KBVE 281351Z AUTO 00000KT 10SM CLR 31/24 A3003 RMK AO2 SLP168
T03060244





000
SAUS44 KLIX 281355 COR
MTRBVE
METAR KBVE 281351Z AUTO 00000KT 10SM CLR 31/24 A3003 RMK AO2 SLP168
T03060244





000
SAUS44 KLIX 281353 COR
MTRBVE
METAR KBVE 281351Z AUTO 00000KT 10SM CLR 31/24 A3003 RMK AO2 SLP168
T03060244





000
SAUS44 KLIX 281353 COR
MTRBVE
METAR KBVE 281351Z AUTO 00000KT 10SM CLR 31/24 A3003 RMK AO2 SLP168
T03060244





000
SAUS44 KLIX 281352
MTRBVE
METAR KBVE 281351Z AUTO 00000KT 10SM CLR 31/24 A3003 RMK AO2 SLP168
T03060244





000
SAUS44 KLIX 281252
MTRBVE
METAR KBVE 281251Z AUTO 33004KT 10SM CLR 30/25 A3002 RMK AO2 SLP166
T03000250





000
SAUS44 KLIX 281252
MTRBVE
METAR KBVE 281251Z AUTO 33004KT 10SM CLR 30/25 A3002 RMK AO2 SLP166
T03000250





000
SAUS44 KLIX 281152
MTRBVE
METAR KBVE 281151Z AUTO 32003KT 10SM CLR 28/25 A3001 RMK AO2 SLP160
T02780250 10278 20267 53018





000
SAUS44 KLIX 281152
MTRBVE
METAR KBVE 281151Z AUTO 32003KT 10SM CLR 28/25 A3001 RMK AO2 SLP160
T02780250 10278 20267 53018





000
SAUS44 KLIX 281052
MTRBVE
METAR KBVE 281051Z AUTO 34003KT 10SM CLR 27/24 A2998 RMK AO2 SLP152
T02720244





000
SAUS44 KLIX 280952
MTRBVE
METAR KBVE 280951Z AUTO 00000KT 10SM CLR 27/24 A2996 RMK AO2 SLP146
T02720244





000
SAUS44 KLIX 280852
MTRBVE
METAR KBVE 280851Z AUTO 29003KT 10SM CLR 27/23 A2995 RMK AO2 SLP143
T02720233 58009





000
SAUS44 KLIX 280852
MTRBVE
METAR KBVE 280851Z AUTO 29003KT 10SM CLR 27/23 A2995 RMK AO2 SLP143
T02720233 58009





000
SAUS44 KLIX 280756 COR
MTRBVE
METAR KBVE 280751Z AUTO 00000KT 10SM CLR 28/23 A2998 RMK AO2 SLP150
T02780233





000
SAUS44 KLIX 280756 COR
MTRBVE
METAR KBVE 280751Z AUTO 00000KT 10SM CLR 28/23 A2998 RMK AO2 SLP150
T02780233





000
SAUS44 KLIX 280753 COR
MTRBVE
METAR KBVE 280751Z AUTO 00000KT 10SM CLR 28/23 A2998 RMK AO2 SLP150
T02780233





000
SAUS44 KLIX 280752
MTRBVE
METAR KBVE 280751Z AUTO 00000KT 10SM CLR 28/23 A2998 RMK AO2 SLP150
T02780233





000
SAUS44 KLIX 280752
MTRBVE
METAR KBVE 280751Z AUTO 00000KT 10SM CLR 28/23 A2998 RMK AO2 SLP150
T02780233





000
SAUS44 KLIX 280652
MTRBVE
METAR KBVE 280651Z AUTO 00000KT 10SM CLR 28/24 A2998 RMK AO2 SLP151
T02780244





000
SAUS44 KLIX 280652
MTRBVE
METAR KBVE 280651Z AUTO 00000KT 10SM CLR 28/24 A2998 RMK AO2 SLP151
T02780244





000
SAUS44 KLIX 280552
MTRBVE
METAR KBVE 280551Z AUTO 00000KT 10SM CLR 28/24 A2998 RMK AO2 SLP151
T02780239 10311 20278 403330267 53005





000
SAUS44 KLIX 280552
MTRBVE
METAR KBVE 280551Z AUTO 00000KT 10SM CLR 28/24 A2998 RMK AO2 SLP151
T02780239 10311 20278 403330267 53005





000
SAUS44 KLIX 280456 COR
MTRBVE
METAR KBVE 280451Z AUTO 00000KT 10SM CLR 28/24 A2998 RMK AO2 SLP151
T02830239





000
SAUS44 KLIX 280455 COR
MTRBVE
METAR KBVE 280451Z AUTO 00000KT 10SM CLR 28/24 A2998 RMK AO2 SLP151
T02830239





000
SAUS44 KLIX 280455 COR
MTRBVE
METAR KBVE 280451Z AUTO 00000KT 10SM CLR 28/24 A2998 RMK AO2 SLP151
T02830239





000
SAUS44 KLIX 280453 COR
MTRBVE
METAR KBVE 280451Z AUTO 00000KT 10SM CLR 28/24 A2998 RMK AO2 SLP151
T02830239





000
SAUS44 KLIX 280453 COR
MTRBVE
METAR KBVE 280451Z AUTO 00000KT 10SM CLR 28/24 A2998 RMK AO2 SLP151
T02830239





000
SAUS44 KLIX 280352
MTRBVE
METAR KBVE 280351Z AUTO 19004KT 10SM CLR 29/23 A2996 RMK AO2 SLP146
T02890233





000
SAUS44 KLIX 280252
MTRBVE
METAR KBVE 280251Z AUTO 14003KT 10SM CLR 29/24 A2996 RMK AO2 SLP146
T02890239 53007





000
SAUS44 KLIX 280152
MTRBVE
METAR KBVE 280151Z AUTO 15004KT 10SM CLR 29/24 A2996 RMK AO2 SLP143
T02890239





000
SAUS44 KLIX 280052
MTRBVE
METAR KBVE 280051Z AUTO 12003KT 10SM CLR 30/23 A2995 RMK AO2 SLP141
T03000233





000
SAUS44 KLIX 280052
MTRBVE
METAR KBVE 280051Z AUTO 12003KT 10SM CLR 30/23 A2995 RMK AO2 SLP141
T03000233





000
SAUS44 KLIX 272353
MTRBVE
METAR KBVE 272351Z AUTO 08004KT 10SM CLR 31/23 A2994 RMK AO2 SLP139
T03110228 10333 20311 56007





000
SAUS44 KLIX 272252
MTRBVE
METAR KBVE 272251Z AUTO 10005KT 10SM CLR 32/23 A2995 RMK AO2 SLP140
T03170228





000
SAUS44 KLIX 272152
MTRBVE
METAR KBVE 272151Z AUTO 07005KT 10SM CLR 32/23 A2996 RMK AO2 SLP144
T03220233





000
SAUS44 KLIX 272152
MTRBVE
METAR KBVE 272151Z AUTO 07005KT 10SM CLR 32/23 A2996 RMK AO2 SLP144
T03220233





000
SAUS44 KLIX 272052
MTRBVE
METAR KBVE 272051Z AUTO 06005KT 10SM CLR 32/23 A2997 RMK AO2 SLP147
T03220233 57011





000
SAUS44 KLIX 271952
MTRBVE
METAR KBVE 271951Z AUTO 10004KT 10SM CLR 32/21 A2998 RMK AO2 SLP151
T03220206





000
SAUS44 KLIX 271952
MTRBVE
METAR KBVE 271951Z AUTO 10004KT 10SM CLR 32/21 A2998 RMK AO2 SLP151
T03220206





000
SAUS44 KLIX 271852
MTRBVE
METAR KBVE 271851Z AUTO 07006KT 10SM CLR 33/21 A2999 RMK AO2 SLP153
T03280211





    US Dept of Commerce
    National Oceanic and Atmospheric Administration
    National Weather Service
    1325 East West Highway
    Silver Spring, MD 20910
    Page Author: NWS Internet Services Team
Disclaimer
Information Quality
Credits
Glossary
Privacy Policy
Freedom of Information Act (FOIA)
About Us
Career Opportunities